sensor_id;sensor_type;location;lat;lon;timestamp;P1;durP1;ratioP1;P2;durP2;ratioP2
75649;SDS011;64245;51.282;22.494;2023-01-24T00:00:29;32.20;;;11.02;;
75649;SDS011;64245;51.282;22.494;2023-01-24T00:03:15;26.17;;;9.48;;
75649;SDS011;64245;51.282;22.494;2023-01-24T00:05:42;27.13;;;9.40;;
75649;SDS011;64245;51.282;22.494;2023-01-24T00:08:13;16.02;;;6.80;;
75649;SDS011;64245;51.282;22.494;2023-01-24T00:10:40;17.08;;;6.85;;
75649;SDS011;64245;51.282;22.494;2023-01-24T00:13:07;16.85;;;5.70;;
75649;SDS011;64245;51.282;22.494;2023-01-24T00:15:37;13.68;;;5.45;;
75649;SDS011;64245;51.282;22.494;2023-01-24T00:18:02;15.05;;;6.38;;
75649;SDS011;64245;51.282;22.494;2023-01-24T00:20:28;16.17;;;5.90;;
75649;SDS011;64245;51.282;22.494;2023-01-24T00:22:54;15.93;;;6.22;;
75649;SDS011;64245;51.282;22.494;2023-01-24T00:25:20;14.88;;;7.25;;
75649;SDS011;64245;51.282;22.494;2023-01-24T00:27:45;21.08;;;9.15;;
75649;SDS011;64245;51.282;22.494;2023-01-24T00:30:11;24.65;;;8.75;;
75649;SDS011;64245;51.282;22.494;2023-01-24T00:32:37;21.27;;;8.40;;
75649;SDS011;64245;51.282;22.494;2023-01-24T00:35:03;22.05;;;8.77;;
75649;SDS011;64245;51.282;22.494;2023-01-24T00:37:29;23.63;;;9.60;;
75649;SDS011;64245;51.282;22.494;2023-01-24T00:39:54;21.20;;;8.52;;
75649;SDS011;64245;51.282;22.494;2023-01-24T00:42:20;25.10;;;8.18;;
75649;SDS011;64245;51.282;22.494;2023-01-24T00:44:46;31.20;;;9.23;;
75649;SDS011;64245;51.282;22.494;2023-01-24T00:47:12;30.85;;;10.52;;
75649;SDS011;64245;51.282;22.494;2023-01-24T00:49:38;24.80;;;9.82;;
75649;SDS011;64245;51.282;22.494;2023-01-24T00:52:03;33.08;;;10.55;;
75649;SDS011;64245;51.282;22.494;2023-01-24T00:54:29;28.98;;;9.82;;
75649;SDS011;64245;51.282;22.494;2023-01-24T00:56:55;24.65;;;9.95;;
75649;SDS011;64245;51.282;22.494;2023-01-24T00:59:21;23.55;;;9.20;;
75649;SDS011;64245;51.282;22.494;2023-01-24T01:01:46;23.30;;;9.02;;
75649;SDS011;64245;51.282;22.494;2023-01-24T01:04:12;24.35;;;9.10;;
75649;SDS011;64245;51.282;22.494;2023-01-24T01:06:37;26.73;;;8.75;;
75649;SDS011;64245;51.282;22.494;2023-01-24T01:09:04;22.00;;;9.38;;
75649;SDS011;64245;51.282;22.494;2023-01-24T01:11:30;19.58;;;6.97;;
75649;SDS011;64245;51.282;22.494;2023-01-24T01:13:56;18.88;;;7.18;;
75649;SDS011;64245;51.282;22.494;2023-01-24T01:16:22;25.25;;;7.90;;
75649;SDS011;64245;51.282;22.494;2023-01-24T01:18:49;22.45;;;8.90;;
75649;SDS011;64245;51.282;22.494;2023-01-24T01:21:18;25.83;;;8.93;;
75649;SDS011;64245;51.282;22.494;2023-01-24T01:23:46;25.80;;;8.23;;
75649;SDS011;64245;51.282;22.494;2023-01-24T01:26:16;22.45;;;9.45;;
75649;SDS011;64245;51.282;22.494;2023-01-24T01:28:44;21.75;;;8.18;;
75649;SDS011;64245;51.282;22.494;2023-01-24T01:31:10;15.68;;;6.70;;
75649;SDS011;64245;51.282;22.494;2023-01-24T01:33:36;16.63;;;6.45;;
75649;SDS011;64245;51.282;22.494;2023-01-24T01:36:02;18.42;;;7.90;;
75649;SDS011;64245;51.282;22.494;2023-01-24T01:38:28;18.90;;;6.20;;
75649;SDS011;64245;51.282;22.494;2023-01-24T01:40:55;17.88;;;6.53;;
75649;SDS011;64245;51.282;22.494;2023-01-24T01:43:22;16.85;;;6.85;;
75649;SDS011;64245;51.282;22.494;2023-01-24T01:45:54;16.08;;;6.35;;
75649;SDS011;64245;51.282;22.494;2023-01-24T01:54:09;14.25;;;6.30;;
75649;SDS011;64245;51.282;22.494;2023-01-24T01:56:43;16.13;;;6.25;;
75649;SDS011;64245;51.282;22.494;2023-01-24T01:59:14;11.60;;;6.13;;
75649;SDS011;64245;51.282;22.494;2023-01-24T02:01:43;13.02;;;5.53;;
75649;SDS011;64245;51.282;22.494;2023-01-24T02:04:13;12.68;;;5.28;;
75649;SDS011;64245;51.282;22.494;2023-01-24T02:09:33;12.52;;;5.03;;
75649;SDS011;64245;51.282;22.494;2023-01-24T02:12:03;13.68;;;5.78;;
75649;SDS011;64245;51.282;22.494;2023-01-24T02:14:32;13.63;;;5.43;;
75649;SDS011;64245;51.282;22.494;2023-01-24T02:17:18;13.23;;;6.22;;
75649;SDS011;64245;51.282;22.494;2023-01-24T02:22:43;10.93;;;4.60;;
75649;SDS011;64245;51.282;22.494;2023-01-24T02:25:22;11.52;;;5.22;;
75649;SDS011;64245;51.282;22.494;2023-01-24T02:27:56;10.73;;;4.70;;
75649;SDS011;64245;51.282;22.494;2023-01-24T02:30:24;11.60;;;4.90;;
75649;SDS011;64245;51.282;22.494;2023-01-24T02:32:49;12.10;;;5.15;;
75649;SDS011;64245;51.282;22.494;2023-01-24T02:35:29;9.77;;;5.07;;
75649;SDS011;64245;51.282;22.494;2023-01-24T02:38:00;10.75;;;4.68;;
75649;SDS011;64245;51.282;22.494;2023-01-24T02:40:30;12.48;;;5.28;;
75649;SDS011;64245;51.282;22.494;2023-01-24T02:42:56;12.20;;;5.43;;
75649;SDS011;64245;51.282;22.494;2023-01-24T02:45:27;14.70;;;5.88;;
75649;SDS011;64245;51.282;22.494;2023-01-24T02:47:54;14.80;;;5.80;;
75649;SDS011;64245;51.282;22.494;2023-01-24T02:50:22;11.10;;;5.32;;
75649;SDS011;64245;51.282;22.494;2023-01-24T02:52:50;12.15;;;6.25;;
75649;SDS011;64245;51.282;22.494;2023-01-24T02:55:35;11.98;;;5.18;;
75649;SDS011;64245;51.282;22.494;2023-01-24T02:58:21;12.32;;;6.35;;
75649;SDS011;64245;51.282;22.494;2023-01-24T03:00:47;12.07;;;5.18;;
75649;SDS011;64245;51.282;22.494;2023-01-24T03:03:12;12.63;;;5.13;;
75649;SDS011;64245;51.282;22.494;2023-01-24T03:05:39;12.07;;;5.95;;
75649;SDS011;64245;51.282;22.494;2023-01-24T03:08:19;11.93;;;5.63;;
75649;SDS011;64245;51.282;22.494;2023-01-24T03:10:45;12.27;;;5.75;;
75649;SDS011;64245;51.282;22.494;2023-01-24T03:13:12;16.17;;;6.20;;
75649;SDS011;64245;51.282;22.494;2023-01-24T03:16:00;15.60;;;6.55;;
75649;SDS011;64245;51.282;22.494;2023-01-24T03:18:45;13.32;;;6.40;;
75649;SDS011;64245;51.282;22.494;2023-01-24T03:21:29;10.75;;;5.53;;
75649;SDS011;64245;51.282;22.494;2023-01-24T03:24:13;12.43;;;5.88;;
75649;SDS011;64245;51.282;22.494;2023-01-24T03:26:57;14.90;;;5.75;;
75649;SDS011;64245;51.282;22.494;2023-01-24T03:29:41;11.82;;;5.55;;
75649;SDS011;64245;51.282;22.494;2023-01-24T03:32:25;10.52;;;5.10;;
75649;SDS011;64245;51.282;22.494;2023-01-24T03:35:10;11.40;;;5.80;;
75649;SDS011;64245;51.282;22.494;2023-01-24T03:37:35;13.52;;;5.53;;
75649;SDS011;64245;51.282;22.494;2023-01-24T03:40:19;11.32;;;5.15;;
75649;SDS011;64245;51.282;22.494;2023-01-24T03:42:45;12.95;;;4.90;;
75649;SDS011;64245;51.282;22.494;2023-01-24T03:45:17;10.63;;;5.05;;
75649;SDS011;64245;51.282;22.494;2023-01-24T03:47:49;12.75;;;5.55;;
75649;SDS011;64245;51.282;22.494;2023-01-24T03:50:31;9.52;;;4.78;;
75649;SDS011;64245;51.282;22.494;2023-01-24T03:53:18;11.88;;;4.85;;
75649;SDS011;64245;51.282;22.494;2023-01-24T03:55:45;12.02;;;4.97;;
75649;SDS011;64245;51.282;22.494;2023-01-24T03:58:12;13.20;;;4.78;;
75649;SDS011;64245;51.282;22.494;2023-01-24T04:00:38;10.63;;;5.00;;
75649;SDS011;64245;51.282;22.494;2023-01-24T04:03:05;12.00;;;5.32;;
75649;SDS011;64245;51.282;22.494;2023-01-24T04:05:34;13.25;;;5.18;;
75649;SDS011;64245;51.282;22.494;2023-01-24T04:08:01;12.38;;;5.93;;
75649;SDS011;64245;51.282;22.494;2023-01-24T04:10:27;13.55;;;5.60;;
75649;SDS011;64245;51.282;22.494;2023-01-24T04:12:54;13.35;;;5.97;;
75649;SDS011;64245;51.282;22.494;2023-01-24T04:15:24;9.82;;;5.35;;
75649;SDS011;64245;51.282;22.494;2023-01-24T04:17:53;12.43;;;5.03;;
75649;SDS011;64245;51.282;22.494;2023-01-24T04:20:21;12.15;;;5.10;;
75649;SDS011;64245;51.282;22.494;2023-01-24T04:22:48;13.13;;;5.38;;
75649;SDS011;64245;51.282;22.494;2023-01-24T04:25:13;12.18;;;4.88;;
75649;SDS011;64245;51.282;22.494;2023-01-24T04:27:39;11.32;;;4.82;;
75649;SDS011;64245;51.282;22.494;2023-01-24T04:30:06;13.43;;;5.70;;
75649;SDS011;64245;51.282;22.494;2023-01-24T04:32:33;12.85;;;5.10;;
75649;SDS011;64245;51.282;22.494;2023-01-24T04:34:59;17.20;;;5.32;;
75649;SDS011;64245;51.282;22.494;2023-01-24T04:37:26;12.43;;;5.25;;
75649;SDS011;64245;51.282;22.494;2023-01-24T04:39:52;10.73;;;4.95;;
75649;SDS011;64245;51.282;22.494;2023-01-24T04:42:17;8.80;;;4.80;;
75649;SDS011;64245;51.282;22.494;2023-01-24T04:44:43;11.73;;;5.03;;
75649;SDS011;64245;51.282;22.494;2023-01-24T04:47:09;13.38;;;5.90;;
75649;SDS011;64245;51.282;22.494;2023-01-24T04:49:34;13.35;;;5.00;;
75649;SDS011;64245;51.282;22.494;2023-01-24T04:52:00;10.73;;;5.32;;
75649;SDS011;64245;51.282;22.494;2023-01-24T04:54:26;15.07;;;6.20;;
75649;SDS011;64245;51.282;22.494;2023-01-24T04:56:51;12.65;;;5.25;;
75649;SDS011;64245;51.282;22.494;2023-01-24T04:59:17;13.18;;;5.60;;
75649;SDS011;64245;51.282;22.494;2023-01-24T05:01:43;10.75;;;5.05;;
75649;SDS011;64245;51.282;22.494;2023-01-24T05:04:08;13.77;;;5.32;;
75649;SDS011;64245;51.282;22.494;2023-01-24T05:06:34;13.10;;;5.47;;
75649;SDS011;64245;51.282;22.494;2023-01-24T05:09:01;12.93;;;5.88;;
75649;SDS011;64245;51.282;22.494;2023-01-24T05:11:28;11.48;;;5.13;;
75649;SDS011;64245;51.282;22.494;2023-01-24T05:13:53;11.30;;;4.47;;
75649;SDS011;64245;51.282;22.494;2023-01-24T05:16:19;12.95;;;5.85;;
75649;SDS011;64245;51.282;22.494;2023-01-24T05:18:45;14.70;;;5.00;;
75649;SDS011;64245;51.282;22.494;2023-01-24T05:21:11;11.43;;;4.63;;
75649;SDS011;64245;51.282;22.494;2023-01-24T05:23:39;9.52;;;4.35;;
75649;SDS011;64245;51.282;22.494;2023-01-24T05:26:05;11.90;;;5.13;;
75649;SDS011;64245;51.282;22.494;2023-01-24T05:28:31;12.70;;;5.38;;
75649;SDS011;64245;51.282;22.494;2023-01-24T05:31:01;11.63;;;4.80;;
75649;SDS011;64245;51.282;22.494;2023-01-24T05:33:28;13.40;;;4.65;;
75649;SDS011;64245;51.282;22.494;2023-01-24T05:38:23;14.20;;;5.90;;
75649;SDS011;64245;51.282;22.494;2023-01-24T05:40:49;14.68;;;5.47;;
75649;SDS011;64245;51.282;22.494;2023-01-24T05:43:14;14.02;;;4.88;;
75649;SDS011;64245;51.282;22.494;2023-01-24T05:45:40;12.55;;;5.57;;
75649;SDS011;64245;51.282;22.494;2023-01-24T05:48:06;10.02;;;4.72;;
75649;SDS011;64245;51.282;22.494;2023-01-24T05:50:32;10.48;;;4.40;;
75649;SDS011;64245;51.282;22.494;2023-01-24T05:52:57;11.07;;;5.25;;
75649;SDS011;64245;51.282;22.494;2023-01-24T05:55:26;13.25;;;5.70;;
75649;SDS011;64245;51.282;22.494;2023-01-24T05:57:51;10.93;;;5.55;;
75649;SDS011;64245;51.282;22.494;2023-01-24T06:00:17;10.85;;;4.45;;
75649;SDS011;64245;51.282;22.494;2023-01-24T06:02:43;12.40;;;4.75;;
75649;SDS011;64245;51.282;22.494;2023-01-24T06:05:09;11.25;;;4.80;;
75649;SDS011;64245;51.282;22.494;2023-01-24T06:07:34;13.00;;;5.03;;
75649;SDS011;64245;51.282;22.494;2023-01-24T06:10:00;10.25;;;4.70;;
75649;SDS011;64245;51.282;22.494;2023-01-24T06:12:26;9.75;;;4.47;;
75649;SDS011;64245;51.282;22.494;2023-01-24T06:14:51;13.02;;;4.57;;
75649;SDS011;64245;51.282;22.494;2023-01-24T06:17:17;11.85;;;5.05;;
75649;SDS011;64245;51.282;22.494;2023-01-24T06:19:43;10.35;;;4.32;;
75649;SDS011;64245;51.282;22.494;2023-01-24T06:25:19;15.70;;;5.30;;
75649;SDS011;64245;51.282;22.494;2023-01-24T06:27:47;14.32;;;5.47;;
75649;SDS011;64245;51.282;22.494;2023-01-24T06:30:14;14.43;;;5.55;;
75649;SDS011;64245;51.282;22.494;2023-01-24T06:38:31;12.88;;;5.55;;
75649;SDS011;64245;51.282;22.494;2023-01-24T06:40:59;12.90;;;5.55;;
75649;SDS011;64245;51.282;22.494;2023-01-24T06:43:25;12.88;;;5.43;;
75649;SDS011;64245;51.282;22.494;2023-01-24T06:45:52;10.77;;;5.05;;
75649;SDS011;64245;51.282;22.494;2023-01-24T06:48:17;10.32;;;5.07;;
75649;SDS011;64245;51.282;22.494;2023-01-24T06:50:44;14.48;;;5.72;;
75649;SDS011;64245;51.282;22.494;2023-01-24T06:53:10;12.35;;;5.20;;
75649;SDS011;64245;51.282;22.494;2023-01-24T06:55:36;14.07;;;6.05;;
75649;SDS011;64245;51.282;22.494;2023-01-24T06:58:02;12.48;;;5.10;;
75649;SDS011;64245;51.282;22.494;2023-01-24T07:00:29;15.10;;;6.03;;
75649;SDS011;64245;51.282;22.494;2023-01-24T07:02:58;15.77;;;5.28;;
75649;SDS011;64245;51.282;22.494;2023-01-24T07:05:25;11.13;;;4.90;;
75649;SDS011;64245;51.282;22.494;2023-01-24T07:07:51;12.82;;;5.70;;
75649;SDS011;64245;51.282;22.494;2023-01-24T07:10:17;13.07;;;5.10;;
75649;SDS011;64245;51.282;22.494;2023-01-24T07:12:43;10.75;;;5.22;;
75649;SDS011;64245;51.282;22.494;2023-01-24T07:15:09;11.45;;;5.78;;
75649;SDS011;64245;51.282;22.494;2023-01-24T07:17:35;11.13;;;5.97;;
75649;SDS011;64245;51.282;22.494;2023-01-24T07:20:01;15.50;;;6.95;;
75649;SDS011;64245;51.282;22.494;2023-01-24T07:22:27;13.43;;;6.47;;
75649;SDS011;64245;51.282;22.494;2023-01-24T07:24:53;14.30;;;5.88;;
75649;SDS011;64245;51.282;22.494;2023-01-24T07:27:19;16.20;;;6.63;;
75649;SDS011;64245;51.282;22.494;2023-01-24T07:29:45;13.63;;;6.35;;
75649;SDS011;64245;51.282;22.494;2023-01-24T07:32:11;12.85;;;5.20;;
75649;SDS011;64245;51.282;22.494;2023-01-24T07:34:37;10.40;;;5.18;;
75649;SDS011;64245;51.282;22.494;2023-01-24T07:37:05;10.63;;;5.80;;
75649;SDS011;64245;51.282;22.494;2023-01-24T07:39:32;10.30;;;5.25;;
75649;SDS011;64245;51.282;22.494;2023-01-24T07:41:58;11.52;;;5.38;;
75649;SDS011;64245;51.282;22.494;2023-01-24T07:44:24;13.15;;;5.47;;
75649;SDS011;64245;51.282;22.494;2023-01-24T07:46:50;13.80;;;5.75;;
75649;SDS011;64245;51.282;22.494;2023-01-24T07:49:15;12.65;;;5.20;;
75649;SDS011;64245;51.282;22.494;2023-01-24T07:51:41;13.63;;;5.47;;
75649;SDS011;64245;51.282;22.494;2023-01-24T07:54:07;13.23;;;5.38;;
75649;SDS011;64245;51.282;22.494;2023-01-24T07:56:33;12.80;;;5.65;;
75649;SDS011;64245;51.282;22.494;2023-01-24T07:58:59;16.30;;;5.85;;
75649;SDS011;64245;51.282;22.494;2023-01-24T08:01:25;13.15;;;5.57;;
75649;SDS011;64245;51.282;22.494;2023-01-24T08:03:55;10.60;;;4.60;;
75649;SDS011;64245;51.282;22.494;2023-01-24T08:06:22;9.70;;;4.80;;
75649;SDS011;64245;51.282;22.494;2023-01-24T08:08:48;14.85;;;5.38;;
75649;SDS011;64245;51.282;22.494;2023-01-24T08:11:13;11.63;;;5.00;;
75649;SDS011;64245;51.282;22.494;2023-01-24T08:13:45;11.55;;;5.22;;
75649;SDS011;64245;51.282;22.494;2023-01-24T08:16:12;11.00;;;4.50;;
75649;SDS011;64245;51.282;22.494;2023-01-24T08:18:38;11.38;;;4.43;;
75649;SDS011;64245;51.282;22.494;2023-01-24T08:21:04;11.23;;;5.00;;
75649;SDS011;64245;51.282;22.494;2023-01-24T08:23:31;12.23;;;4.60;;
75649;SDS011;64245;51.282;22.494;2023-01-24T08:25:57;15.93;;;5.75;;
75649;SDS011;64245;51.282;22.494;2023-01-24T08:28:23;15.30;;;6.10;;
75649;SDS011;64245;51.282;22.494;2023-01-24T08:30:49;13.07;;;5.43;;
75649;SDS011;64245;51.282;22.494;2023-01-24T08:33:15;11.38;;;5.75;;
75649;SDS011;64245;51.282;22.494;2023-01-24T08:35:44;13.23;;;6.63;;
75649;SDS011;64245;51.282;22.494;2023-01-24T08:38:11;14.98;;;5.80;;
75649;SDS011;64245;51.282;22.494;2023-01-24T08:40:37;15.32;;;6.05;;
75649;SDS011;64245;51.282;22.494;2023-01-24T08:43:03;17.52;;;7.20;;
75649;SDS011;64245;51.282;22.494;2023-01-24T08:45:29;14.95;;;5.90;;
75649;SDS011;64245;51.282;22.494;2023-01-24T08:47:55;13.77;;;6.15;;
75649;SDS011;64245;51.282;22.494;2023-01-24T08:50:21;17.17;;;6.43;;
75649;SDS011;64245;51.282;22.494;2023-01-24T08:52:47;14.60;;;5.45;;
75649;SDS011;64245;51.282;22.494;2023-01-24T08:55:14;15.93;;;6.60;;
75649;SDS011;64245;51.282;22.494;2023-01-24T08:57:40;17.08;;;6.78;;
75649;SDS011;64245;51.282;22.494;2023-01-24T09:00:06;14.25;;;6.55;;
75649;SDS011;64245;51.282;22.494;2023-01-24T09:02:33;13.65;;;5.97;;
75649;SDS011;64245;51.282;22.494;2023-01-24T09:07:28;16.77;;;6.18;;
75649;SDS011;64245;51.282;22.494;2023-01-24T09:09:54;9.48;;;4.90;;
75649;SDS011;64245;51.282;22.494;2023-01-24T09:12:20;12.90;;;5.28;;
75649;SDS011;64245;51.282;22.494;2023-01-24T09:14:45;14.85;;;6.30;;
75649;SDS011;64245;51.282;22.494;2023-01-24T09:17:11;11.73;;;5.68;;
75649;SDS011;64245;51.282;22.494;2023-01-24T09:19:37;11.23;;;6.00;;
75649;SDS011;64245;51.282;22.494;2023-01-24T09:22:02;11.48;;;5.15;;
75649;SDS011;64245;51.282;22.494;2023-01-24T09:24:28;10.25;;;5.35;;
75649;SDS011;64245;51.282;22.494;2023-01-24T09:26:54;12.13;;;5.80;;
75649;SDS011;64245;51.282;22.494;2023-01-24T09:29:20;11.63;;;5.00;;
75649;SDS011;64245;51.282;22.494;2023-01-24T09:31:48;12.45;;;5.72;;
75649;SDS011;64245;51.282;22.494;2023-01-24T09:34:14;15.02;;;5.55;;
75649;SDS011;64245;51.282;22.494;2023-01-24T09:36:40;12.00;;;5.80;;
75649;SDS011;64245;51.282;22.494;2023-01-24T09:39:06;10.20;;;5.15;;
75649;SDS011;64245;51.282;22.494;2023-01-24T09:47:15;12.68;;;4.97;;
75649;SDS011;64245;51.282;22.494;2023-01-24T09:49:48;8.30;;;4.82;;
75649;SDS011;64245;51.282;22.494;2023-01-24T09:52:27;8.60;;;4.32;;
75649;SDS011;64245;51.282;22.494;2023-01-24T09:57:26;10.02;;;4.57;;
75649;SDS011;64245;51.282;22.494;2023-01-24T10:00:00;8.43;;;4.95;;
75649;SDS011;64245;51.282;22.494;2023-01-24T10:02:35;11.23;;;5.53;;
75649;SDS011;64245;51.282;22.494;2023-01-24T10:05:01;12.48;;;5.40;;
75649;SDS011;64245;51.282;22.494;2023-01-24T10:08:12;12.90;;;5.70;;
75649;SDS011;64245;51.282;22.494;2023-01-24T10:10:28;10.32;;;4.50;;
75649;SDS011;64245;51.282;22.494;2023-01-24T10:13:08;11.52;;;5.22;;
75649;SDS011;64245;51.282;22.494;2023-01-24T10:15:45;12.07;;;6.35;;
75649;SDS011;64245;51.282;22.494;2023-01-24T10:18:43;12.63;;;5.93;;
75649;SDS011;64245;51.282;22.494;2023-01-24T10:24:04;14.77;;;5.82;;
75649;SDS011;64245;51.282;22.494;2023-01-24T10:26:38;12.38;;;6.32;;
75649;SDS011;64245;51.282;22.494;2023-01-24T10:29:19;14.05;;;6.90;;
75649;SDS011;64245;51.282;22.494;2023-01-24T10:39:38;13.70;;;5.80;;
75649;SDS011;64245;51.282;22.494;2023-01-24T10:42:11;11.30;;;5.72;;
75649;SDS011;64245;51.282;22.494;2023-01-24T10:44:41;11.23;;;6.53;;
75649;SDS011;64245;51.282;22.494;2023-01-24T10:50:05;11.98;;;6.25;;
75649;SDS011;64245;51.282;22.494;2023-01-24T10:52:32;13.77;;;7.05;;
75649;SDS011;64245;51.282;22.494;2023-01-24T10:54:59;14.93;;;7.28;;
75649;SDS011;64245;51.282;22.494;2023-01-24T11:02:45;10.68;;;5.78;;
75649;SDS011;64245;51.282;22.494;2023-01-24T11:05:13;9.98;;;5.07;;
75649;SDS011;64245;51.282;22.494;2023-01-24T11:07:43;9.50;;;5.40;;
75649;SDS011;64245;51.282;22.494;2023-01-24T11:10:30;10.27;;;5.13;;
75649;SDS011;64245;51.282;22.494;2023-01-24T11:13:01;11.35;;;5.78;;
75649;SDS011;64245;51.282;22.494;2023-01-24T11:15:33;13.90;;;5.30;;
75649;SDS011;64245;51.282;22.494;2023-01-24T11:18:11;8.40;;;5.07;;
75649;SDS011;64245;51.282;22.494;2023-01-24T11:20:44;11.20;;;6.03;;
75649;SDS011;64245;51.282;22.494;2023-01-24T11:23:17;11.93;;;5.68;;
75649;SDS011;64245;51.282;22.494;2023-01-24T11:25:58;12.13;;;5.80;;
75649;SDS011;64245;51.282;22.494;2023-01-24T11:28:36;9.40;;;5.45;;
75649;SDS011;64245;51.282;22.494;2023-01-24T11:31:47;13.13;;;5.90;;
75649;SDS011;64245;51.282;22.494;2023-01-24T11:36:42;9.80;;;5.80;;
75649;SDS011;64245;51.282;22.494;2023-01-24T11:42:14;10.05;;;4.78;;
75649;SDS011;64245;51.282;22.494;2023-01-24T11:44:48;8.52;;;4.65;;
75649;SDS011;64245;51.282;22.494;2023-01-24T11:47:21;10.07;;;5.13;;
75649;SDS011;64245;51.282;22.494;2023-01-24T11:55:26;7.10;;;4.13;;
75649;SDS011;64245;51.282;22.494;2023-01-24T12:11:46;8.63;;;4.65;;
75649;SDS011;64245;51.282;22.494;2023-01-24T12:20:16;9.07;;;5.30;;
75649;SDS011;64245;51.282;22.494;2023-01-24T12:22:51;10.35;;;5.45;;
75649;SDS011;64245;51.282;22.494;2023-01-24T12:25:22;10.02;;;5.43;;
75649;SDS011;64245;51.282;22.494;2023-01-24T12:27:55;9.63;;;4.93;;
75649;SDS011;64245;51.282;22.494;2023-01-24T12:30:32;10.40;;;5.18;;
75649;SDS011;64245;51.282;22.494;2023-01-24T12:35:49;9.85;;;5.57;;
75649;SDS011;64245;51.282;22.494;2023-01-24T12:38:29;31.05;;;12.68;;
75649;SDS011;64245;51.282;22.494;2023-01-24T12:41:02;24.15;;;11.38;;
75649;SDS011;64245;51.282;22.494;2023-01-24T12:46:30;16.73;;;8.40;;
75649;SDS011;64245;51.282;22.494;2023-01-24T12:49:08;15.13;;;8.40;;
75649;SDS011;64245;51.282;22.494;2023-01-24T12:57:21;20.17;;;9.88;;
75649;SDS011;64245;51.282;22.494;2023-01-24T12:59:53;18.50;;;8.77;;
75649;SDS011;64245;51.282;22.494;2023-01-24T13:13:04;17.08;;;7.93;;
75649;SDS011;64245;51.282;22.494;2023-01-24T13:15:42;15.52;;;7.45;;
75649;SDS011;64245;51.282;22.494;2023-01-24T13:21:05;17.88;;;8.32;;
75649;SDS011;64245;51.282;22.494;2023-01-24T13:23:46;16.20;;;7.95;;
75649;SDS011;64245;51.282;22.494;2023-01-24T13:31:29;19.98;;;10.95;;
75649;SDS011;64245;51.282;22.494;2023-01-24T13:36:30;27.33;;;12.90;;
75649;SDS011;64245;51.282;22.494;2023-01-24T13:38:59;38.33;;;16.92;;
75649;SDS011;64245;51.282;22.494;2023-01-24T13:51:52;22.95;;;10.40;;
75649;SDS011;64245;51.282;22.494;2023-01-24T13:54:40;20.73;;;10.70;;
75649;SDS011;64245;51.282;22.494;2023-01-24T13:59:41;20.00;;;9.73;;
75649;SDS011;64245;51.282;22.494;2023-01-24T14:04:52;19.20;;;10.25;;
75649;SDS011;64245;51.282;22.494;2023-01-24T14:07:18;22.30;;;10.93;;
75649;SDS011;64245;51.282;22.494;2023-01-24T14:09:58;23.08;;;8.88;;
75649;SDS011;64245;51.282;22.494;2023-01-24T14:12:26;19.73;;;9.43;;
75649;SDS011;64245;51.282;22.494;2023-01-24T14:15:24;23.73;;;10.15;;
75649;SDS011;64245;51.282;22.494;2023-01-24T14:17:54;24.50;;;11.05;;
75649;SDS011;64245;51.282;22.494;2023-01-24T14:34:19;19.88;;;10.45;;
75649;SDS011;64245;51.282;22.494;2023-01-24T14:36:57;23.05;;;10.30;;
75649;SDS011;64245;51.282;22.494;2023-01-24T14:39:37;22.00;;;9.85;;
75649;SDS011;64245;51.282;22.494;2023-01-24T14:42:05;23.58;;;10.10;;
75649;SDS011;64245;51.282;22.494;2023-01-24T14:44:37;21.45;;;10.15;;
75649;SDS011;64245;51.282;22.494;2023-01-24T14:47:17;21.13;;;10.52;;
75649;SDS011;64245;51.282;22.494;2023-01-24T14:49:47;25.60;;;9.90;;
75649;SDS011;64245;51.282;22.494;2023-01-24T14:52:22;20.60;;;9.68;;
75649;SDS011;64245;51.282;22.494;2023-01-24T14:54:51;20.90;;;9.88;;
75649;SDS011;64245;51.282;22.494;2023-01-24T14:59:46;17.90;;;8.32;;
75649;SDS011;64245;51.282;22.494;2023-01-24T15:02:16;21.13;;;8.80;;
75649;SDS011;64245;51.282;22.494;2023-01-24T15:04:44;20.48;;;9.23;;
75649;SDS011;64245;51.282;22.494;2023-01-24T15:07:11;19.67;;;8.43;;
75649;SDS011;64245;51.282;22.494;2023-01-24T15:15:01;21.45;;;8.73;;
75649;SDS011;64245;51.282;22.494;2023-01-24T15:17:29;21.83;;;9.43;;
75649;SDS011;64245;51.282;22.494;2023-01-24T15:19:57;17.80;;;9.38;;
75649;SDS011;64245;51.282;22.494;2023-01-24T15:22:36;20.85;;;9.40;;
75649;SDS011;64245;51.282;22.494;2023-01-24T15:25:13;19.05;;;9.23;;
75649;SDS011;64245;51.282;22.494;2023-01-24T15:27:44;20.67;;;9.00;;
75649;SDS011;64245;51.282;22.494;2023-01-24T15:30:14;25.35;;;9.52;;
75649;SDS011;64245;51.282;22.494;2023-01-24T15:43:15;24.77;;;11.40;;
75649;SDS011;64245;51.282;22.494;2023-01-24T15:46:03;29.77;;;11.57;;
75649;SDS011;64245;51.282;22.494;2023-01-24T15:49:01;30.13;;;12.63;;
75649;SDS011;64245;51.282;22.494;2023-01-24T15:53:58;28.73;;;12.82;;
75649;SDS011;64245;51.282;22.494;2023-01-24T15:56:24;34.22;;;13.70;;
75649;SDS011;64245;51.282;22.494;2023-01-24T15:58:52;27.27;;;12.50;;
75649;SDS011;64245;51.282;22.494;2023-01-24T16:01:18;22.75;;;10.77;;
75649;SDS011;64245;51.282;22.494;2023-01-24T16:03:44;26.60;;;12.27;;
75649;SDS011;64245;51.282;22.494;2023-01-24T16:06:10;32.05;;;13.05;;
75649;SDS011;64245;51.282;22.494;2023-01-24T16:08:35;33.50;;;13.15;;
75649;SDS011;64245;51.282;22.494;2023-01-24T16:11:01;37.10;;;15.30;;
75649;SDS011;64245;51.282;22.494;2023-01-24T16:13:29;37.83;;;16.48;;
75649;SDS011;64245;51.282;22.494;2023-01-24T16:15:59;38.65;;;17.38;;
75649;SDS011;64245;51.282;22.494;2023-01-24T16:18:27;40.08;;;17.38;;
75649;SDS011;64245;51.282;22.494;2023-01-24T16:20:53;31.27;;;15.23;;
75649;SDS011;64245;51.282;22.494;2023-01-24T16:23:19;35.50;;;16.10;;
75649;SDS011;64245;51.282;22.494;2023-01-24T16:25:52;31.70;;;15.23;;
75649;SDS011;64245;51.282;22.494;2023-01-24T16:28:21;34.63;;;15.45;;
75649;SDS011;64245;51.282;22.494;2023-01-24T16:30:48;38.88;;;15.73;;
75649;SDS011;64245;51.282;22.494;2023-01-24T16:33:15;41.85;;;17.25;;
75649;SDS011;64245;51.282;22.494;2023-01-24T16:35:41;40.38;;;16.48;;
75649;SDS011;64245;51.282;22.494;2023-01-24T16:38:08;45.53;;;17.92;;
75649;SDS011;64245;51.282;22.494;2023-01-24T16:40:35;43.03;;;17.52;;
75649;SDS011;64245;51.282;22.494;2023-01-24T16:43:01;37.65;;;14.93;;
75649;SDS011;64245;51.282;22.494;2023-01-24T16:45:28;38.00;;;15.57;;
75649;SDS011;64245;51.282;22.494;2023-01-24T16:47:54;36.72;;;16.30;;
75649;SDS011;64245;51.282;22.494;2023-01-24T16:50:20;38.58;;;15.70;;
75649;SDS011;64245;51.282;22.494;2023-01-24T16:52:46;37.78;;;14.60;;
75649;SDS011;64245;51.282;22.494;2023-01-24T16:55:12;37.25;;;15.25;;
75649;SDS011;64245;51.282;22.494;2023-01-24T16:57:38;35.45;;;14.25;;
75649;SDS011;64245;51.282;22.494;2023-01-24T17:00:04;39.20;;;15.30;;
75649;SDS011;64245;51.282;22.494;2023-01-24T17:02:35;39.90;;;15.27;;
75649;SDS011;64245;51.282;22.494;2023-01-24T17:05:01;36.60;;;14.27;;
75649;SDS011;64245;51.282;22.494;2023-01-24T17:07:27;33.70;;;14.80;;
75649;SDS011;64245;51.282;22.494;2023-01-24T17:09:52;31.05;;;14.40;;
75649;SDS011;64245;51.282;22.494;2023-01-24T17:12:18;29.35;;;13.43;;
75649;SDS011;64245;51.282;22.494;2023-01-24T17:14:44;31.23;;;14.32;;
75649;SDS011;64245;51.282;22.494;2023-01-24T17:17:09;34.63;;;14.50;;
75649;SDS011;64245;51.282;22.494;2023-01-24T17:19:35;33.63;;;14.07;;